Time;durP1;ratioP1;P1;durP2;ratioP2;P2;SDS_P1;SDS_P2;PMS_P1;PMS_P2;Temp;Humidity;BMP_temperature;BMP_pressure;BME280_temperature;BME280_humidity;BME280_pressure;Samples;Min_cycle;Max_cycle;Signal;HPM_P1;HPM_P2
2021/07/30 00:02:03;;;;;;;5.53;4.47;;;17.00;79.70;;;;;;5072401;28;20485;-77
2021/07/30 00:04:30;;;;;;;6.03;4.77;;;17.00;79.50;;;;;;5053891;28;20448;-78
2021/07/30 00:06:58;;;;;;;5.07;4.57;;;16.90;80.40;;;;;;5053734;28;20547;-78
2021/07/30 00:09:25;;;;;;;4.43;4.03;;;16.80;81.00;;;;;;5053972;28;20517;-77
2021/07/30 00:11:52;;;;;;;5.07;4.37;;;16.80;82.20;;;;;;5059421;28;20532;-77
2021/07/30 00:14:19;;;;;;;6.13;5.03;;;16.70;82.40;;;;;;5073504;28;20558;-78
2021/07/30 00:16:46;;;;;;;5.70;5.20;;;16.80;82.50;;;;;;5072916;28;20466;-78
2021/07/30 00:19:13;;;;;;;5.23;4.73;;;16.70;82.40;;;;;;5073952;28;20524;-79
2021/07/30 00:21:39;;;;;;;5.53;5.03;;;16.60;83.50;;;;;;5070247;28;20917;-78
2021/07/30 00:24:08;;;;;;;4.53;4.13;;;16.60;83.80;;;;;;5053586;28;20487;-77
2021/07/30 00:26:35;;;;;;;5.37;4.40;;;16.50;84.20;;;;;;5053550;28;20887;-77
2021/07/30 00:29:01;;;;;;;6.40;4.93;;;16.40;84.80;;;;;;5053925;28;20861;-78
2021/07/30 00:31:28;;;;;;;5.17;4.67;;;16.40;85.50;;;;;;5053669;28;20911;-78
2021/07/30 00:33:55;;;;;;;5.20;4.50;;;16.30;85.40;;;;;;5053186;28;20487;-77
2021/07/30 00:36:22;;;;;;;7.90;4.90;;;16.30;85.30;;;;;;5072348;28;20533;-79
2021/07/30 00:38:49;;;;;;;8.07;4.30;;;16.20;85.80;;;;;;5074115;28;20531;-78
2021/07/30 00:41:17;;;;;;;5.73;4.37;;;16.20;86.30;;;;;;5056370;28;20778;-78
2021/07/30 00:43:44;;;;;;;4.90;3.83;;;16.10;86.30;;;;;;5053584;28;20451;-78
2021/07/30 00:46:11;;;;;;;8.18;5.45;;;16.20;85.90;;;;;;5054248;28;20482;-78
2021/07/30 00:48:39;;;;;;;5.07;4.57;;;16.10;85.80;;;;;;5059378;28;20228;-78
2021/07/30 00:51:06;;;;;;;4.87;4.47;;;16.10;86.10;;;;;;5063195;28;20481;-78
2021/07/30 00:53:33;;;;;;;5.10;4.43;;;16.00;86.50;;;;;;5065736;28;20480;-79
2021/07/30 00:56:00;;;;;;;4.83;4.33;;;16.00;87.00;;;;;;5056386;28;20215;-78
2021/07/30 00:58:29;;;;;;;5.87;5.27;;;16.00;87.20;;;;;;5055230;28;20545;-78
2021/07/30 01:00:56;;;;;;;4.90;4.43;;;16.00;87.70;;;;;;5056851;28;20489;-79
2021/07/30 01:03:23;;;;;;;5.38;4.57;;;16.00;88.10;;;;;;5055174;28;20566;-78
2021/07/30 01:05:52;;;;;;;5.13;4.03;;;16.10;87.20;;;;;;5066056;28;20251;-79
2021/07/30 01:08:19;;;;;;;5.30;4.80;;;16.10;86.40;;;;;;5076813;28;20458;-78
2021/07/30 01:10:45;;;;;;;6.80;4.80;;;16.00;86.20;;;;;;5074710;28;20564;-78
2021/07/30 01:13:13;;;;;;;4.80;4.30;;;16.00;87.00;;;;;;5078345;28;20449;-79
2021/07/30 01:15:41;;;;;;;5.80;4.50;;;15.90;87.80;;;;;;5096835;28;20442;-80
2021/07/30 01:18:08;;;;;;;6.67;5.00;;;15.90;87.80;;;;;;5095975;28;20457;-78
2021/07/30 01:20:38;;;;;;;4.87;4.47;;;15.90;87.70;;;;;;5096044;28;20485;-80
2021/07/30 01:23:08;;;;;;;4.83;4.33;;;15.90;88.10;;;;;;5096939;28;20527;-80
2021/07/30 01:25:36;;;;;;;4.60;4.20;;;15.90;88.00;;;;;;5092167;28;20929;-79
2021/07/30 01:28:03;;;;;;;8.43;5.18;;;15.90;88.10;;;;;;5074140;28;20291;-78
2021/07/30 01:30:30;;;;;;;5.77;5.17;;;15.80;88.60;;;;;;5073828;28;20315;-78
2021/07/30 01:32:57;;;;;;;5.70;4.30;;;15.80;88.90;;;;;;5073031;28;20461;-78
2021/07/30 01:35:24;;;;;;;5.20;4.20;;;15.80;89.20;;;;;;5073042;28;20789;-79
2021/07/30 01:37:51;;;;;;;5.45;4.22;;;15.80;88.30;;;;;;5072900;28;20555;-78
2021/07/30 01:40:21;;;;;;;9.52;5.00;;;15.70;88.50;;;;;;5072799;28;20764;-80
2021/07/30 01:42:48;;;;;;;4.65;4.25;;;15.70;88.50;;;;;;5065472;28;20256;-78
2021/07/30 01:45:15;;;;;;;5.70;4.90;;;15.70;89.10;;;;;;5052930;28;20285;-78
2021/07/30 01:47:42;;;;;;;5.07;3.85;;;15.70;88.00;;;;;;5052646;28;20210;-77
2021/07/30 01:50:10;;;;;;;4.57;3.97;;;15.60;89.10;;;;;;5052909;28;20277;-78
2021/07/30 01:52:37;;;;;;;5.68;4.78;;;15.50;88.80;;;;;;5053524;28;20290;-79
2021/07/30 01:55:05;;;;;;;5.38;4.85;;;15.40;88.80;;;;;;5057628;28;20234;-79
2021/07/30 01:57:33;;;;;;;5.85;4.80;;;15.30;89.50;;;;;;5062984;28;20271;-79
2021/07/30 02:00:00;;;;;;;4.50;3.83;;;15.30;89.50;;;;;;5079497;28;20230;-79
2021/07/30 02:02:32;;;;;;;5.90;4.40;;;15.30;90.00;;;;;;5082402;28;20235;-79
2021/07/30 02:05:00;;;;;;;4.40;3.97;;;15.30;89.50;;;;;;5066164;28;20233;-78
2021/07/30 02:07:27;;;;;;;6.20;4.20;;;15.30;89.60;;;;;;5062491;28;20587;-78
2021/07/30 02:09:54;;;;;;;4.63;4.05;;;15.20;89.40;;;;;;5053846;28;20238;-78
2021/07/30 02:12:21;;;;;;;5.05;4.40;;;15.20;90.50;;;;;;5057611;28;20245;-79
2021/07/30 02:14:48;;;;;;;5.60;5.10;;;15.20;90.70;;;;;;5079179;28;20274;-79
2021/07/30 02:17:15;;;;;;;5.30;4.80;;;15.20;90.30;;;;;;5082672;28;20205;-78
2021/07/30 02:19:42;;;;;;;4.97;4.25;;;15.20;89.50;;;;;;5078776;28;20230;-80
2021/07/30 02:22:09;;;;;;;5.32;4.60;;;15.20;89.40;;;;;;5077714;28;20903;-80
2021/07/30 02:24:36;;;;;;;7.72;4.65;;;15.20;90.20;;;;;;5093359;28;20202;-79
2021/07/30 02:27:04;;;;;;;4.65;4.25;;;15.20;90.90;;;;;;5095080;28;20211;-80
2021/07/30 02:29:31;;;;;;;5.10;4.68;;;15.10;91.10;;;;;;5085168;28;20199;-80
2021/07/30 02:31:59;;;;;;;4.82;4.43;;;15.10;91.10;;;;;;5078322;28;20206;-80
2021/07/30 02:34:26;;;;;;;6.93;5.32;;;15.10;91.40;;;;;;5078216;28;20235;-80
2021/07/30 02:36:53;;;;;;;4.80;3.92;;;15.00;91.50;;;;;;5083923;28;20238;-81
2021/07/30 02:39:20;;;;;;;5.60;5.10;;;15.00;91.60;;;;;;5076478;28;20214;-79
2021/07/30 02:41:47;;;;;;;5.05;4.60;;;15.00;91.40;;;;;;5092566;28;20232;-81
2021/07/30 02:44:13;;;;;;;6.38;4.80;;;15.00;90.90;;;;;;5095442;28;20210;-79
2021/07/30 02:46:40;;;;;;;4.60;4.20;;;15.00;90.80;;;;;;5079568;28;20218;-80
2021/07/30 02:49:08;;;;;;;4.40;4.00;;;15.00;90.90;;;;;;5075336;28;20298;-80
2021/07/30 02:51:35;;;;;;;4.50;4.10;;;15.00;90.90;;;;;;5088493;28;20240;-80
2021/07/30 02:54:03;;;;;;;5.10;4.30;;;15.00;90.90;;;;;;5093500;28;20214;-79
2021/07/30 02:56:29;;;;;;;6.30;4.40;;;15.10;90.70;;;;;;5079927;28;20202;-78
2021/07/30 02:58:56;;;;;;;4.60;3.70;;;15.10;90.50;;;;;;5071862;28;20224;-79
2021/07/30 03:01:23;;;;;;;4.78;4.25;;;15.10;89.30;;;;;;5074015;28;20227;-78
2021/07/30 03:03:50;;;;;;;4.35;3.92;;;15.20;89.50;;;;;;5073811;28;20250;-79
2021/07/30 03:06:18;;;;;;;8.18;4.07;;;15.10;89.30;;;;;;5083722;28;20215;-80
2021/07/30 03:08:45;;;;;;;4.28;3.85;;;15.00;89.20;;;;;;5091356;28;20217;-78
2021/07/30 03:11:12;;;;;;;4.97;4.47;;;15.00;89.30;;;;;;5083671;28;20248;-80
2021/07/30 03:13:40;;;;;;;4.68;4.10;;;15.00;89.20;;;;;;5073488;28;20218;-80
2021/07/30 03:16:07;;;;;;;4.97;4.47;;;15.10;89.30;;;;;;5075137;28;20194;-80
2021/07/30 03:18:34;;;;;;;5.43;4.53;;;15.10;89.30;;;;;;5075034;28;20203;-82
2021/07/30 03:21:01;;;;;;;5.97;4.38;;;15.00;89.20;;;;;;5069815;28;20253;-81
2021/07/30 03:23:29;;;;;;;4.20;3.80;;;15.00;89.30;;;;;;5079832;28;20309;-80
2021/07/30 03:25:56;;;;;;;7.38;4.70;;;15.00;87.20;;;;;;5073632;28;20206;-81
2021/07/30 03:28:23;;;;;;;5.45;4.20;;;15.00;86.60;;;;;;5059162;28;20742;-78
2021/07/30 03:30:50;;;;;;;5.22;4.57;;;15.10;86.40;;;;;;5058974;28;20790;-78
2021/07/30 03:33:17;;;;;;;3.45;3.15;;;15.10;85.80;;;;;;5059667;28;20635;-79
2021/07/30 03:35:44;;;;;;;4.68;4.05;;;15.10;85.10;;;;;;5060037;28;20293;-80
2021/07/30 03:38:11;;;;;;;4.20;3.80;;;15.20;84.40;;;;;;5079373;28;20240;-79
2021/07/30 03:40:39;;;;;;;4.43;3.72;;;15.20;83.40;;;;;;5079372;28;20261;-80
2021/07/30 03:43:06;;;;;;;4.40;4.00;;;15.20;83.60;;;;;;5059181;28;20522;-80
2021/07/30 03:45:33;;;;;;;4.10;3.72;;;15.20;83.40;;;;;;5059039;28;20262;-81
2021/07/30 03:48:00;;;;;;;9.10;4.57;;;15.20;82.80;;;;;;5059445;28;20226;-79
2021/07/30 03:50:27;;;;;;;4.75;4.25;;;15.20;82.60;;;;;;5060414;28;20274;-79
2021/07/30 03:52:53;;;;;;;3.92;3.55;;;15.20;82.90;;;;;;5079431;28;20694;-78
2021/07/30 03:55:20;;;;;;;6.72;4.20;;;15.20;82.50;;;;;;5081843;28;20224;-78
2021/07/30 03:57:48;;;;;;;4.78;4.25;;;15.20;82.40;;;;;;5085329;28;20198;-80
2021/07/30 04:00:16;;;;;;;4.93;4.00;;;15.20;82.30;;;;;;5078666;28;20691;-77
2021/07/30 04:02:43;;;;;;;4.47;3.72;;;15.20;82.60;;;;;;5060961;28;20313;-77
2021/07/30 04:05:11;;;;;;;4.28;3.63;;;15.30;82.30;;;;;;5055102;28;20222;-77
2021/07/30 04:07:37;;;;;;;3.60;3.30;;;15.30;81.90;;;;;;5068706;28;20222;-78
2021/07/30 04:10:05;;;;;;;4.75;3.90;;;15.30;81.40;;;;;;5073715;28;20222;-78
2021/07/30 04:12:32;;;;;;;4.05;3.70;;;15.30;82.20;;;;;;5073910;28;20209;-78
2021/07/30 04:15:00;;;;;;;5.07;4.25;;;15.30;82.20;;;;;;5073586;28;20241;-77
2021/07/30 04:17:27;;;;;;;7.47;4.60;;;15.20;82.30;;;;;;5074523;28;20245;-79
2021/07/30 04:19:54;;;;;;;4.88;3.60;;;15.30;81.80;;;;;;5074515;28;20269;-77
2021/07/30 04:22:21;;;;;;;8.02;4.18;;;15.30;81.70;;;;;;5075054;28;20266;-78
2021/07/30 04:24:48;;;;;;;4.50;4.10;;;15.40;81.20;;;;;;5073924;28;20410;-78
2021/07/30 04:27:15;;;;;;;4.72;3.50;;;15.40;81.20;;;;;;5074791;28;20317;-78
2021/07/30 04:29:43;;;;;;;4.10;3.70;;;15.40;81.20;;;;;;5074033;28;20742;-79
2021/07/30 04:32:12;;;;;;;6.13;3.77;;;15.40;80.30;;;;;;5073925;28;20195;-78
2021/07/30 04:34:40;;;;;;;5.07;4.57;;;15.50;80.40;;;;;;5061868;28;20814;-78
2021/07/30 04:37:07;;;;;;;8.60;4.17;;;15.50;79.90;;;;;;5054187;28;20302;-79
2021/07/30 04:39:35;;;;;;;5.47;3.70;;;15.50;80.20;;;;;;5053548;28;20965;-78
2021/07/30 04:42:02;;;;;;;3.60;3.30;;;15.60;80.00;;;;;;5055069;28;20630;-78
2021/07/30 04:44:29;;;;;;;4.75;3.85;;;15.60;78.50;;;;;;5053005;28;20490;-79
2021/07/30 04:46:56;;;;;;;5.68;3.95;;;15.60;78.80;;;;;;5067928;28;20675;-78
2021/07/30 04:49:24;;;;;;;5.30;4.38;;;15.60;78.20;;;;;;5072214;28;20240;-78
2021/07/30 04:51:51;;;;;;;4.47;3.87;;;15.60;78.10;;;;;;5070342;28;20237;-78
2021/07/30 04:54:18;;;;;;;4.63;3.80;;;15.80;78.30;;;;;;5054654;28;20632;-79
2021/07/30 04:56:45;;;;;;;3.90;3.60;;;16.30;75.70;;;;;;5055937;28;20460;-77
2021/07/30 04:59:12;;;;;;;3.73;2.90;;;17.10;73.50;;;;;;5072903;28;20459;-77
2021/07/30 05:01:42;;;;;;;3.90;3.50;;;17.80;64.50;;;;;;5072295;28;20542;-77
2021/07/30 05:04:09;;;;;;;3.97;3.57;;;18.60;60.90;;;;;;5072474;28;20879;-77
2021/07/30 05:06:38;;;;;;;5.63;3.30;;;19.60;57.50;;;;;;5072349;28;20502;-77
2021/07/30 05:09:05;;;;;;;12.23;3.63;;;19.90;52.00;;;;;;5072320;28;20560;-79
2021/07/30 05:11:32;;;;;;;3.10;2.80;;;20.10;50.90;;;;;;5072855;28;21030;-78
2021/07/30 05:13:59;;;;;;;4.20;3.40;;;20.60;49.40;;;;;;5070926;28;20533;-78
2021/07/30 05:16:26;;;;;;;4.90;3.20;;;20.60;49.40;;;;;;5052949;28;20932;-78
2021/07/30 05:18:52;;;;;;;3.70;2.63;;;21.40;47.60;;;;;;5054253;28;20456;-77
2021/07/30 05:21:19;;;;;;;6.07;3.60;;;22.10;45.20;;;;;;5058034;28;20496;-77
2021/07/30 05:23:48;;;;;;;3.70;2.80;;;22.80;42.20;;;;;;5065352;28;21012;-77
2021/07/30 05:26:14;;;;;;;2.70;2.50;;;23.20;41.80;;;;;;5072835;28;20543;-78
2021/07/30 05:28:41;;;;;;;3.70;2.73;;;23.50;40.50;;;;;;5090389;28;20475;-78
2021/07/30 05:31:14;;;;;;;6.10;3.03;;;23.30;40.50;;;;;;5075563;28;20485;-78
2021/07/30 05:33:41;;;;;;;3.60;2.60;;;23.00;42.40;;;;;;5059637;28;20457;-78
2021/07/30 05:36:08;;;;;;;7.00;2.93;;;23.30;41.50;;;;;;5074433;28;20444;-77
2021/07/30 05:38:35;;;;;;;6.73;3.27;;;23.80;39.50;;;;;;5077199;28;20986;-80
2021/07/30 05:41:03;;;;;;;9.10;3.83;;;23.90;39.30;;;;;;5067471;28;20473;-78
2021/07/30 05:43:32;;;;;;;3.63;3.17;;;24.20;38.90;;;;;;5070262;28;20475;-78
2021/07/30 05:45:59;;;;;;;6.57;3.30;;;23.80;39.90;;;;;;5079895;28;20432;-79
2021/07/30 05:48:25;;;;;;;3.27;2.97;;;24.20;38.80;;;;;;5068654;28;20436;-77
2021/07/30 05:50:52;;;;;;;3.50;3.20;;;24.20;38.20;;;;;;5066051;28;20456;-78
2021/07/30 05:53:19;;;;;;;3.93;3.53;;;23.80;39.70;;;;;;5063040;28;20474;-78
2021/07/30 05:55:46;;;;;;;5.90;3.10;;;24.10;38.90;;;;;;5064758;28;20431;-78
2021/07/30 05:58:14;;;;;;;3.93;3.50;;;24.40;38.10;;;;;;5068684;28;20424;-77
2021/07/30 06:00:41;;;;;;;3.87;3.37;;;24.60;37.50;;;;;;5063145;28;20478;-77
2021/07/30 06:03:08;;;;;;;4.63;2.80;;;24.70;37.40;;;;;;5080868;28;20560;-78
2021/07/30 06:05:35;;;;;;;4.00;3.20;;;24.70;36.90;;;;;;5094464;28;20453;-79
2021/07/30 06:08:05;;;;;;;4.07;2.93;;;24.50;37.10;;;;;;5098883;28;20457;-78
2021/07/30 06:10:33;;;;;;;4.50;2.70;;;24.50;37.10;;;;;;5078704;28;20472;-76
2021/07/30 06:13:00;;;;;;;5.50;3.13;;;24.60;36.80;;;;;;5081353;28;21003;-77
2021/07/30 06:15:28;;;;;;;4.30;3.17;;;24.80;36.40;;;;;;5078326;28;20486;-78
2021/07/30 06:17:55;;;;;;;3.80;3.40;;;23.80;38.60;;;;;;5060279;28;20432;-77
2021/07/30 06:20:24;;;;;;;3.30;3.00;;;23.20;40.70;;;;;;5060619;28;20456;-79
2021/07/30 06:22:51;;;;;;;3.10;2.67;;;23.30;40.20;;;;;;5060777;28;20552;-78
2021/07/30 06:25:18;;;;;;;5.60;3.00;;;23.90;39.40;;;;;;5061370;28;20792;-77
2021/07/30 06:27:45;;;;;;;3.13;2.87;;;23.20;40.40;;;;;;5074389;28;20464;-78
2021/07/30 06:30:13;;;;;;;2.87;2.67;;;23.00;41.60;;;;;;5078152;28;20461;-79
2021/07/30 06:32:42;;;;;;;3.20;2.70;;;23.40;41.00;;;;;;5078543;28;20527;-80
2021/07/30 06:35:10;;;;;;;4.60;3.20;;;23.70;40.20;;;;;;5079529;28;20509;-79
2021/07/30 06:37:37;;;;;;;7.60;3.10;;;24.20;38.60;;;;;;5096167;28;20447;-80
2021/07/30 06:40:06;;;;;;;4.37;3.40;;;24.20;38.90;;;;;;5087727;28;20490;-78
2021/07/30 06:42:33;;;;;;;7.37;3.07;;;24.30;38.60;;;;;;5079986;28;20427;-79
2021/07/30 06:45:00;;;;;;;5.63;3.00;;;24.50;38.30;;;;;;5095388;28;20502;-79
2021/07/30 06:47:27;;;;;;;5.50;3.70;;;24.80;37.20;;;;;;5080904;28;20447;-80
2021/07/30 06:49:56;;;;;;;5.20;2.97;;;24.80;37.10;;;;;;5077712;28;20517;-79
2021/07/30 06:52:23;;;;;;;4.20;3.40;;;24.70;37.30;;;;;;5081036;28;20467;-80
2021/07/30 06:54:49;;;;;;;6.07;3.30;;;24.60;37.50;;;;;;5085348;28;20501;-79
2021/07/30 06:57:16;;;;;;;5.30;3.03;;;23.70;38.90;;;;;;5095817;28;20444;-79
2021/07/30 06:59:43;;;;;;;4.80;4.00;;;22.90;41.50;;;;;;5083560;28;20449;-79
2021/07/30 07:02:10;;;;;;;3.83;3.47;;;22.20;42.30;;;;;;5059622;28;20498;-79
2021/07/30 07:04:37;;;;;;;3.53;3.23;;;21.80;43.80;;;;;;5057699;28;20484;-79
2021/07/30 07:07:06;;;;;;;8.77;3.40;;;21.50;43.10;;;;;;5057598;28;20471;-78
2021/07/30 07:09:33;;;;;;;5.40;3.90;;;21.30;45.20;;;;;;5057257;28;20448;-78
2021/07/30 07:12:02;;;;;;;4.53;4.00;;;21.10;44.70;;;;;;5089059;28;20537;-78
2021/07/30 07:14:31;;;;;;;4.40;3.30;;;21.10;45.50;;;;;;5096745;28;20480;-79
2021/07/30 07:16:58;;;;;;;4.50;3.53;;;21.20;45.30;;;;;;5092457;28;20526;-78
2021/07/30 07:19:25;;;;;;;3.97;3.33;;;21.40;45.20;;;;;;5081163;28;20465;-78
2021/07/30 07:21:54;;;;;;;4.40;3.57;;;21.30;45.10;;;;;;5075486;28;20993;-78
2021/07/30 07:24:22;;;;;;;4.57;4.17;;;21.30;45.10;;;;;;5076879;28;20859;-79
2021/07/30 07:26:49;;;;;;;5.93;3.43;;;21.20;44.50;;;;;;5072324;28;20440;-79
2021/07/30 07:29:16;;;;;;;4.93;3.60;;;21.00;45.20;;;;;;5070381;28;20503;-78
2021/07/30 07:31:44;;;;;;;4.50;3.87;;;21.00;44.80;;;;;;5076878;28;20470;-77
2021/07/30 07:34:12;;;;;;;6.63;3.77;;;20.90;45.60;;;;;;5097839;28;20470;-76
2021/07/30 07:36:39;;;;;;;6.53;3.90;;;20.90;45.40;;;;;;5098032;28;20492;-77
2021/07/30 07:39:05;;;;;;;5.63;3.70;;;20.90;46.20;;;;;;5098456;28;20437;-77
2021/07/30 07:41:35;;;;;;;3.57;3.27;;;20.90;45.50;;;;;;5085144;28;20822;-80
2021/07/30 07:44:02;;;;;;;4.27;3.63;;;20.80;46.20;;;;;;5085292;28;20463;-80
2021/07/30 07:46:29;;;;;;;4.40;3.60;;;21.00;46.20;;;;;;5072142;28;20436;-79
2021/07/30 07:48:56;;;;;;;5.03;3.30;;;21.20;44.30;;;;;;5061906;28;20427;-78
2021/07/30 07:51:23;;;;;;;6.50;3.70;;;21.10;43.40;;;;;;5079375;28;20501;-79
2021/07/30 07:53:51;;;;;;;3.40;3.00;;;21.20;44.40;;;;;;5073373;28;20962;-79
2021/07/30 07:56:18;;;;;;;3.60;3.30;;;21.30;44.50;;;;;;5084084;28;20488;-78
2021/07/30 07:58:49;;;;;;;6.30;3.27;;;21.50;43.90;;;;;;5080921;28;20452;-79
2021/07/30 08:01:17;;;;;;;3.57;2.90;;;21.50;43.10;;;;;;5074659;28;20475;-81
2021/07/30 08:03:46;;;;;;;4.90;3.57;;;21.60;43.30;;;;;;5079225;28;20517;-81
2021/07/30 08:06:20;;;;;;;3.20;2.87;;;21.70;43.90;;;;;;5082619;28;20856;-79
2021/07/30 08:08:47;;;;;;;4.30;3.03;;;21.80;43.50;;;;;;5082266;28;20580;-80
2021/07/30 08:11:14;;;;;;;7.00;3.53;;;22.00;43.50;;;;;;5078353;28;20472;-79
2021/07/30 08:13:41;;;;;;;4.87;3.87;;;22.10;42.80;;;;;;5079368;28;20533;-78
2021/07/30 08:16:10;;;;;;;3.80;3.50;;;22.20;42.30;;;;;;5078470;28;20433;-79
2021/07/30 08:18:37;;;;;;;3.43;3.13;;;22.30;42.60;;;;;;5070397;28;20465;-79
2021/07/30 08:21:04;;;;;;;4.50;3.37;;;22.30;40.90;;;;;;5078935;28;20468;-80
2021/07/30 08:23:31;;;;;;;4.90;3.73;;;22.20;41.70;;;;;;5085163;28;20483;-80
2021/07/30 08:25:58;;;;;;;3.63;2.97;;;22.10;42.20;;;;;;5069012;28;20465;-79
2021/07/30 08:28:26;;;;;;;5.50;3.73;;;22.20;42.00;;;;;;5081134;28;20483;-79
2021/07/30 08:30:53;;;;;;;2.90;2.50;;;22.40;41.00;;;;;;5071532;28;20495;-80
2021/07/30 08:33:22;;;;;;;4.00;3.30;;;22.50;41.10;;;;;;5062520;28;20430;-79
2021/07/30 08:35:49;;;;;;;3.50;3.20;;;22.70;41.70;;;;;;5082084;28;20904;-78
2021/07/30 08:38:16;;;;;;;3.40;3.10;;;22.80;40.80;;;;;;5082106;28;20462;-79
2021/07/30 08:40:43;;;;;;;4.00;3.10;;;22.90;40.30;;;;;;5065983;28;20490;-80
2021/07/30 08:43:15;;;;;;;6.30;3.40;;;22.90;40.60;;;;;;5069266;28;20426;-80
2021/07/30 08:45:42;;;;;;;3.63;3.30;;;23.00;40.50;;;;;;5066369;28;20637;-80
2021/07/30 08:48:09;;;;;;;4.17;3.60;;;23.10;40.80;;;;;;5079404;28;20438;-79
2021/07/30 08:50:39;;;;;;;4.00;3.10;;;23.20;41.70;;;;;;5078130;28;20603;-79
2021/07/30 08:53:06;;;;;;;4.00;3.60;;;23.30;41.90;;;;;;5062301;28;20423;-79
2021/07/30 08:55:33;;;;;;;3.90;3.50;;;23.30;41.90;;;;;;5061072;28;20517;-80
2021/07/30 08:58:00;;;;;;;3.83;3.50;;;23.40;42.00;;;;;;5073644;28;20452;-78
2021/07/30 09:00:27;;;;;;;4.67;3.57;;;23.50;42.10;;;;;;5058853;28;20480;-79
2021/07/30 09:02:56;;;;;;;4.17;3.77;;;23.70;41.00;;;;;;5063738;28;20462;-78
2021/07/30 09:05:30;;;;;;;6.03;3.57;;;23.90;40.60;;;;;;5070102;28;20484;-80
2021/07/30 09:08:00;;;;;;;3.40;3.10;;;24.10;40.40;;;;;;5081441;28;20453;-79
2021/07/30 09:10:29;;;;;;;5.43;3.60;;;24.30;39.50;;;;;;5068714;28;20474;-80
2021/07/30 09:13:21;;;;;;;4.73;3.90;;;24.40;38.90;;;;;;5070027;28;20479;-80
2021/07/30 09:15:50;;;;;;;4.13;3.33;;;24.50;37.60;;;;;;5079647;28;20812;-80
2021/07/30 09:18:28;;;;;;;3.80;3.40;;;24.60;37.70;;;;;;5060925;28;20529;-80
2021/07/30 09:20:56;;;;;;;4.10;3.80;;;24.60;36.50;;;;;;5061641;28;20558;-80
2021/07/30 09:23:27;;;;;;;4.43;3.67;;;24.40;36.30;;;;;;5061163;28;20441;-80
2021/07/30 09:25:54;;;;;;;4.30;4.00;;;24.40;36.80;;;;;;5075192;28;20512;-78
2021/07/30 09:28:21;;;;;;;3.83;3.50;;;24.50;37.10;;;;;;5071246;28;20524;-80
2021/07/30 09:31:02;;;;;;;4.67;3.63;;;24.60;36.40;;;;;;5083874;28;20689;-80
2021/07/30 09:33:29;;;;;;;4.30;3.47;;;24.60;36.60;;;;;;5079260;28;20810;-79
2021/07/30 09:35:57;;;;;;;5.00;3.93;;;24.60;37.30;;;;;;5068425;28;20425;-79
2021/07/30 09:38:26;;;;;;;5.20;4.00;;;24.80;36.80;;;;;;5086741;28;20463;-79
2021/07/30 09:41:12;;;;;;;5.00;3.93;;;25.00;36.50;;;;;;5068954;28;20539;-79
2021/07/30 09:43:39;;;;;;;3.87;3.47;;;25.10;36.20;;;;;;5069903;28;20836;-79
2021/07/30 09:46:15;;;;;;;4.63;3.80;;;25.20;34.10;;;;;;5087181;28;20479;-78
2021/07/30 09:48:49;;;;;;;5.63;3.80;;;25.20;35.70;;;;;;5087858;28;20465;-79
2021/07/30 09:51:16;;;;;;;4.20;3.80;;;25.30;36.20;;;;;;5086566;28;20576;-80
2021/07/30 09:54:07;;;;;;;4.40;3.73;;;25.40;35.90;;;;;;5080681;28;20453;-79
2021/07/30 09:56:34;;;;;;;5.67;3.60;;;25.50;35.30;;;;;;5077661;28;20852;-79
2021/07/30 09:59:02;;;;;;;12.27;3.83;;;25.60;34.70;;;;;;5079070;28;20489;-79
2021/07/30 10:01:31;;;;;;;4.60;4.00;;;25.70;34.90;;;;;;5082916;28;20452;-79
2021/07/30 10:03:59;;;;;;;3.97;3.60;;;25.70;33.60;;;;;;5074967;28;20467;-80
2021/07/30 10:06:28;;;;;;;4.13;3.80;;;25.50;35.40;;;;;;5071703;28;20517;-79
2021/07/30 10:08:55;;;;;;;7.57;4.03;;;25.70;35.50;;;;;;5071895;28;20456;-78
2021/07/30 10:11:24;;;;;;;4.23;3.93;;;25.90;34.80;;;;;;5076885;28;20530;-78
2021/07/30 10:13:51;;;;;;;3.80;3.50;;;25.70;33.60;;;;;;5056830;28;20448;-79
2021/07/30 10:16:19;;;;;;;3.13;2.93;;;25.90;33.80;;;;;;5062171;28;20474;-79
2021/07/30 10:39:39;;;;;;;5.70;4.30;;;26.20;33.00;;;;;;5049330;28;20435;-79
2021/07/30 10:42:11;;;;;;;4.37;3.97;;;26.30;33.70;;;;;;5051179;28;20441;-79
2021/07/30 10:45:12;;;;;;;5.13;4.63;;;26.30;32.60;;;;;;5101219;22;20474;-77
2021/07/30 10:47:40;;;;;;;5.00;4.60;;;26.30;34.00;;;;;;5086839;28;20472;-77
2021/07/30 10:50:43;;;;;;;4.37;3.97;;;26.50;33.20;;;;;;5076944;28;20427;-77
2021/07/30 10:53:47;;;;;;;4.87;4.37;;;26.70;33.00;;;;;;5076277;28;20432;-77
2021/07/30 10:56:48;;;;;;;5.13;4.20;;;26.60;31.70;;;;;;5055913;28;20448;-77
2021/07/30 10:59:23;;;;;;;4.23;3.90;;;26.40;34.20;;;;;;5078323;28;20830;-78
2021/07/30 11:02:00;;;;;;;3.93;3.53;;;26.50;34.20;;;;;;5077775;28;20729;-78
2021/07/30 11:04:27;;;;;;;8.43;4.60;;;26.70;33.50;;;;;;5079432;28;20462;-78
2021/07/30 11:06:59;;;;;;;5.30;4.60;;;26.90;32.80;;;;;;5078492;28;20422;-77
2021/07/30 11:09:39;;;;;;;5.20;4.47;;;26.70;32.50;;;;;;5079688;28;20469;-78
2021/07/30 11:12:17;;;;;;;5.20;3.87;;;26.60;33.50;;;;;;5085240;28;20527;-78
2021/07/30 11:14:48;;;;;;;4.30;3.90;;;26.70;33.20;;;;;;5096136;28;20474;-78
2021/07/30 11:17:15;;;;;;;4.20;3.90;;;26.60;34.00;;;;;;5080615;28;20418;-78
2021/07/30 11:19:45;;;;;;;6.30;4.30;;;26.60;33.30;;;;;;5077631;28;20522;-78
2021/07/30 11:22:14;;;;;;;4.93;4.53;;;26.80;33.70;;;;;;5077871;28;20452;-77
2021/07/30 11:24:42;;;;;;;5.53;4.97;;;27.00;31.90;;;;;;5077460;28;20530;-77
2021/07/30 11:27:10;;;;;;;5.30;4.03;;;26.80;32.60;;;;;;5080543;28;20434;-77
2021/07/30 11:29:43;;;;;;;5.53;4.30;;;26.60;32.90;;;;;;5083457;28;20501;-77
2021/07/30 11:32:10;;;;;;;5.53;4.37;;;26.60;32.70;;;;;;5088836;28;20456;-77
2021/07/30 11:34:38;;;;;;;4.50;4.10;;;26.60;33.40;;;;;;5083076;28;20488;-78
2021/07/30 11:37:07;;;;;;;5.50;4.57;;;26.50;33.60;;;;;;5076709;28;20476;-78
2021/07/30 11:39:38;;;;;;;4.63;4.23;;;26.50;33.80;;;;;;5076087;28;20542;-78
2021/07/30 11:42:06;;;;;;;5.17;4.50;;;26.60;34.20;;;;;;5076165;28;20452;-77
2021/07/30 11:44:46;;;;;;;4.57;3.87;;;27.10;32.70;;;;;;5074772;28;22473;-77
2021/07/30 11:47:13;;;;;;;4.50;4.10;;;27.60;31.80;;;;;;5073609;28;20979;-76
2021/07/30 11:49:41;;;;;;;7.00;4.43;;;28.00;30.80;;;;;;5074886;28;20451;-77
2021/07/30 11:52:11;;;;;;;7.00;4.03;;;28.10;30.10;;;;;;5075269;28;20422;-77
2021/07/30 11:54:38;;;;;;;7.13;4.43;;;28.20;30.10;;;;;;5076692;28;20474;-76
2021/07/30 11:57:05;;;;;;;4.87;3.70;;;28.50;29.70;;;;;;5077220;28;20480;-76
2021/07/30 11:59:48;;;;;;;5.27;3.60;;;28.60;29.50;;;;;;5079764;28;20812;-77
2021/07/30 12:02:16;;;;;;;5.17;4.23;;;28.60;29.20;;;;;;5076185;28;20467;-77
2021/07/30 12:04:54;;;;;;;4.10;3.80;;;28.40;29.50;;;;;;5075569;28;20489;-76
2021/07/30 12:07:23;;;;;;;4.43;4.03;;;28.10;30.00;;;;;;5077344;28;21010;-77
2021/07/30 12:09:53;;;;;;;4.40;4.00;;;27.90;30.20;;;;;;5077528;28;20531;-76
2021/07/30 12:12:22;;;;;;;4.63;4.30;;;27.80;31.00;;;;;;5077415;28;20480;-77
2021/07/30 12:14:52;;;;;;;5.60;4.47;;;27.60;31.20;;;;;;5076231;28;20494;-77
2021/07/30 12:17:20;;;;;;;6.00;4.20;;;27.30;31.90;;;;;;5075070;28;20481;-77
2021/07/30 12:19:58;;;;;;;4.93;4.53;;;27.20;32.40;;;;;;5071985;28;20485;-77
2021/07/30 12:22:35;;;;;;;5.00;4.60;;;27.20;32.60;;;;;;5054863;28;20568;-77
2021/07/30 12:25:02;;;;;;;5.23;4.70;;;27.20;32.50;;;;;;5059877;28;20500;-76
2021/07/30 12:27:29;;;;;;;5.83;3.90;;;27.40;32.50;;;;;;5074341;28;20921;-76
2021/07/30 12:29:57;;;;;;;5.60;5.10;;;27.60;32.30;;;;;;5069609;28;20935;-76
2021/07/30 12:32:27;;;;;;;5.00;4.50;;;27.90;31.10;;;;;;5054534;28;20464;-76
2021/07/30 12:34:59;;;;;;;5.00;4.50;;;28.00;30.50;;;;;;5055024;28;20439;-76
2021/07/30 12:37:28;;;;;;;4.90;4.50;;;28.20;30.30;;;;;;5054597;28;20994;-77
2021/07/30 12:39:56;;;;;;;5.20;4.70;;;28.20;30.40;;;;;;5056676;28;20528;-77
2021/07/30 12:42:25;;;;;;;5.53;4.80;;;28.30;30.10;;;;;;5074647;28;20498;-77
2021/07/30 12:45:08;;;;;;;5.30;4.87;;;28.30;29.80;;;;;;5074559;28;20973;-76
2021/07/30 12:47:36;;;;;;;4.50;4.07;;;28.30;30.20;;;;;;5075912;28;20452;-77
2021/07/30 12:50:27;;;;;;;5.30;4.80;;;28.30;30.20;;;;;;5064540;28;20957;-76
2021/07/30 12:53:08;;;;;;;6.67;5.10;;;28.30;30.60;;;;;;5080988;28;20441;-77
2021/07/30 12:56:01;;;;;;;5.43;4.40;;;28.40;30.20;;;;;;5079233;28;20431;-77
2021/07/30 12:58:29;;;;;;;4.83;4.43;;;28.60;30.00;;;;;;5074422;28;20503;-78
2021/07/30 13:00:59;;;;;;;5.30;4.80;;;28.70;29.70;;;;;;5070962;28;20428;-76
2021/07/30 13:03:27;;;;;;;4.87;4.43;;;28.40;29.30;;;;;;5067001;28;20451;-77
2021/07/30 13:05:57;;;;;;;5.43;4.93;;;28.40;29.40;;;;;;5070236;28;20565;-77
2021/07/30 13:08:25;;;;;;;5.30;4.90;;;28.30;29.10;;;;;;5061076;28;20440;-77
2021/07/30 13:10:52;;;;;;;5.53;4.70;;;28.30;29.60;;;;;;5075451;28;20531;-77
2021/07/30 13:13:22;;;;;;;6.00;4.50;;;28.40;29.40;;;;;;5061029;28;20452;-77
2021/07/30 13:15:49;;;;;;;4.83;4.40;;;28.60;29.10;;;;;;5059370;28;20452;-75
2021/07/30 13:18:18;;;;;;;8.50;5.00;;;28.50;29.30;;;;;;5072545;28;20495;-76